Fort Severn, Canada
Current Conditions -  °F | °C
As of 10:00 AM on Wednesday 22 Oct 2014 (Local Time) from CYER Reporting Station
Clear Clear  
Wind Chill:   Ceiling: Unl
Heat Index:   Visibility: 9mi
Dew Point:   Wind: 14mph
Humidity: 76%   Direction: 220°SW
Pressure: 29.84"   Gusts: 20mph
Location:  55.98°N, 87.65°W
Report Text: CYER 221400Z AUTO 22012G17KT 9SM CLR 05/01 A2984 RMK SLP107
Loading
Personal Weather Stations






























Interactive Weather Map
Tropical Storm Tracking
New forecast layout! Learn more

10-Day Weather Forecast

Advertisements
Track Severe Weather on mobile